sensor_id;sensor_type;location;lat;lon;timestamp;P1;durP1;ratioP1;P2;durP2;ratioP2
9904;SDS011;4991;43.566;27.820;2023-05-10T00:01:38;9.77;;;6.77;;
9904;SDS011;4991;43.566;27.820;2023-05-10T00:04:05;9.97;;;7.50;;
9904;SDS011;4991;43.566;27.820;2023-05-10T00:06:31;9.53;;;7.23;;
9904;SDS011;4991;43.566;27.820;2023-05-10T00:08:56;11.43;;;7.33;;
9904;SDS011;4991;43.566;27.820;2023-05-10T00:11:22;9.57;;;7.70;;
9904;SDS011;4991;43.566;27.820;2023-05-10T00:13:48;13.00;;;7.90;;
9904;SDS011;4991;43.566;27.820;2023-05-10T00:16:13;11.13;;;8.50;;
9904;SDS011;4991;43.566;27.820;2023-05-10T00:18:39;10.10;;;7.57;;
9904;SDS011;4991;43.566;27.820;2023-05-10T00:21:05;11.23;;;7.33;;
9904;SDS011;4991;43.566;27.820;2023-05-10T00:23:31;9.70;;;7.83;;
9904;SDS011;4991;43.566;27.820;2023-05-10T00:25:57;9.43;;;7.57;;
9904;SDS011;4991;43.566;27.820;2023-05-10T00:28:23;11.23;;;7.23;;
9904;SDS011;4991;43.566;27.820;2023-05-10T00:30:48;13.10;;;7.80;;
9904;SDS011;4991;43.566;27.820;2023-05-10T00:33:14;12.40;;;8.30;;
9904;SDS011;4991;43.566;27.820;2023-05-10T00:35:39;10.90;;;8.37;;
9904;SDS011;4991;43.566;27.820;2023-05-10T00:38:05;12.93;;;8.80;;
9904;SDS011;4991;43.566;27.820;2023-05-10T00:40:31;9.93;;;7.80;;
9904;SDS011;4991;43.566;27.820;2023-05-10T00:42:56;11.70;;;8.20;;
9904;SDS011;4991;43.566;27.820;2023-05-10T00:45:23;12.23;;;8.23;;
9904;SDS011;4991;43.566;27.820;2023-05-10T00:47:50;12.30;;;8.73;;
9904;SDS011;4991;43.566;27.820;2023-05-10T00:50:20;10.77;;;8.83;;
9904;SDS011;4991;43.566;27.820;2023-05-10T00:52:46;13.27;;;8.47;;
9904;SDS011;4991;43.566;27.820;2023-05-10T00:55:12;10.13;;;8.30;;
9904;SDS011;4991;43.566;27.820;2023-05-10T00:57:38;10.90;;;8.20;;
9904;SDS011;4991;43.566;27.820;2023-05-10T01:00:04;10.80;;;8.60;;
9904;SDS011;4991;43.566;27.820;2023-05-10T01:02:31;10.03;;;8.17;;
9904;SDS011;4991;43.566;27.820;2023-05-10T01:04:58;9.67;;;7.57;;
9904;SDS011;4991;43.566;27.820;2023-05-10T01:07:25;9.50;;;7.87;;
9904;SDS011;4991;43.566;27.820;2023-05-10T01:09:50;12.33;;;8.30;;
9904;SDS011;4991;43.566;27.820;2023-05-10T01:12:16;10.53;;;8.00;;
9904;SDS011;4991;43.566;27.820;2023-05-10T01:14:42;11.17;;;7.80;;
9904;SDS011;4991;43.566;27.820;2023-05-10T01:17:08;10.17;;;8.10;;
9904;SDS011;4991;43.566;27.820;2023-05-10T01:19:35;13.70;;;8.90;;
9904;SDS011;4991;43.566;27.820;2023-05-10T01:36:32;11.63;;;8.60;;
9904;SDS011;4991;43.566;27.820;2023-05-10T01:39:32;13.57;;;8.97;;
9904;SDS011;4991;43.566;27.820;2023-05-10T01:42:29;12.60;;;9.03;;
9904;SDS011;4991;43.566;27.820;2023-05-10T01:45:16;11.90;;;8.17;;
9904;SDS011;4991;43.566;27.820;2023-05-10T01:48:01;10.23;;;7.80;;
9904;SDS011;4991;43.566;27.820;2023-05-10T01:50:30;14.80;;;8.97;;
9904;SDS011;4991;43.566;27.820;2023-05-10T01:52:57;13.90;;;8.90;;
9904;SDS011;4991;43.566;27.820;2023-05-10T01:55:27;10.23;;;9.10;;
9904;SDS011;4991;43.566;27.820;2023-05-10T01:58:01;11.37;;;8.70;;
9904;SDS011;4991;43.566;27.820;2023-05-10T02:00:31;15.37;;;9.97;;
9904;SDS011;4991;43.566;27.820;2023-05-10T02:02:58;16.23;;;9.53;;
9904;SDS011;4991;43.566;27.820;2023-05-10T02:05:26;14.23;;;8.53;;
9904;SDS011;4991;43.566;27.820;2023-05-10T02:07:55;12.03;;;8.00;;
9904;SDS011;4991;43.566;27.820;2023-05-10T02:10:23;11.63;;;9.33;;
9904;SDS011;4991;43.566;27.820;2023-05-10T02:12:49;14.93;;;9.30;;
9904;SDS011;4991;43.566;27.820;2023-05-10T02:15:18;12.77;;;9.00;;
9904;SDS011;4991;43.566;27.820;2023-05-10T02:17:47;11.20;;;8.97;;
9904;SDS011;4991;43.566;27.820;2023-05-10T02:20:13;14.50;;;9.00;;
9904;SDS011;4991;43.566;27.820;2023-05-10T02:22:41;12.77;;;8.30;;
9904;SDS011;4991;43.566;27.820;2023-05-10T02:25:08;10.73;;;7.07;;
9904;SDS011;4991;43.566;27.820;2023-05-10T02:27:36;10.13;;;7.43;;
9904;SDS011;4991;43.566;27.820;2023-05-10T02:30:02;13.70;;;8.00;;
9904;SDS011;4991;43.566;27.820;2023-05-10T02:32:30;8.43;;;6.57;;
9904;SDS011;4991;43.566;27.820;2023-05-10T02:34:56;10.97;;;7.20;;
9904;SDS011;4991;43.566;27.820;2023-05-10T02:37:23;9.20;;;6.97;;
9904;SDS011;4991;43.566;27.820;2023-05-10T02:39:50;11.43;;;7.50;;
9904;SDS011;4991;43.566;27.820;2023-05-10T02:42:19;9.17;;;7.53;;
9904;SDS011;4991;43.566;27.820;2023-05-10T02:44:49;9.27;;;8.00;;
9904;SDS011;4991;43.566;27.820;2023-05-10T02:47:18;10.13;;;7.47;;
9904;SDS011;4991;43.566;27.820;2023-05-10T02:49:44;11.87;;;9.20;;
9904;SDS011;4991;43.566;27.820;2023-05-10T02:52:09;10.00;;;7.53;;
9904;SDS011;4991;43.566;27.820;2023-05-10T02:54:41;11.00;;;6.87;;
9904;SDS011;4991;43.566;27.820;2023-05-10T02:57:11;10.83;;;7.67;;
9904;SDS011;4991;43.566;27.820;2023-05-10T02:59:47;8.50;;;7.10;;
9904;SDS011;4991;43.566;27.820;2023-05-10T03:02:13;10.00;;;6.60;;
9904;SDS011;4991;43.566;27.820;2023-05-10T03:04:39;9.47;;;7.27;;
9904;SDS011;4991;43.566;27.820;2023-05-10T03:07:04;16.03;;;7.57;;
9904;SDS011;4991;43.566;27.820;2023-05-10T03:09:31;11.20;;;7.63;;
9904;SDS011;4991;43.566;27.820;2023-05-10T03:17:29;14.20;;;6.93;;
9904;SDS011;4991;43.566;27.820;2023-05-10T03:20:12;7.63;;;6.10;;
9904;SDS011;4991;43.566;27.820;2023-05-10T03:22:54;9.43;;;6.50;;
9904;SDS011;4991;43.566;27.820;2023-05-10T03:25:23;7.47;;;5.90;;
9904;SDS011;4991;43.566;27.820;2023-05-10T03:27:49;9.03;;;6.37;;
9904;SDS011;4991;43.566;27.820;2023-05-10T03:30:17;8.47;;;6.80;;
9904;SDS011;4991;43.566;27.820;2023-05-10T03:32:43;9.17;;;7.33;;
9904;SDS011;4991;43.566;27.820;2023-05-10T03:35:09;9.13;;;6.50;;
9904;SDS011;4991;43.566;27.820;2023-05-10T03:37:36;8.03;;;5.93;;
9904;SDS011;4991;43.566;27.820;2023-05-10T03:40:02;8.23;;;6.13;;
9904;SDS011;4991;43.566;27.820;2023-05-10T03:42:29;8.27;;;6.30;;
9904;SDS011;4991;43.566;27.820;2023-05-10T03:44:54;7.87;;;7.07;;
9904;SDS011;4991;43.566;27.820;2023-05-10T03:47:20;8.83;;;6.17;;
9904;SDS011;4991;43.566;27.820;2023-05-10T03:49:46;8.40;;;6.50;;
9904;SDS011;4991;43.566;27.820;2023-05-10T03:52:11;9.97;;;6.93;;
9904;SDS011;4991;43.566;27.820;2023-05-10T03:54:37;9.70;;;6.87;;
9904;SDS011;4991;43.566;27.820;2023-05-10T03:57:03;11.37;;;6.73;;
9904;SDS011;4991;43.566;27.820;2023-05-10T03:59:29;6.83;;;6.00;;
9904;SDS011;4991;43.566;27.820;2023-05-10T04:01:55;7.43;;;6.30;;
9904;SDS011;4991;43.566;27.820;2023-05-10T04:04:20;7.23;;;6.27;;
9904;SDS011;4991;43.566;27.820;2023-05-10T04:06:47;9.67;;;7.10;;
9904;SDS011;4991;43.566;27.820;2023-05-10T04:09:12;8.30;;;6.50;;
9904;SDS011;4991;43.566;27.820;2023-05-10T04:11:38;7.67;;;6.33;;
9904;SDS011;4991;43.566;27.820;2023-05-10T04:14:04;12.23;;;6.93;;
9904;SDS011;4991;43.566;27.820;2023-05-10T04:16:30;7.37;;;6.63;;
9904;SDS011;4991;43.566;27.820;2023-05-10T04:18:55;9.93;;;6.53;;
9904;SDS011;4991;43.566;27.820;2023-05-10T04:21:21;12.63;;;8.00;;
9904;SDS011;4991;43.566;27.820;2023-05-10T04:23:47;8.73;;;7.70;;
9904;SDS011;4991;43.566;27.820;2023-05-10T04:26:12;12.57;;;8.67;;
9904;SDS011;4991;43.566;27.820;2023-05-10T04:28:38;11.10;;;9.10;;
9904;SDS011;4991;43.566;27.820;2023-05-10T04:31:05;9.53;;;7.67;;
9904;SDS011;4991;43.566;27.820;2023-05-10T04:33:31;10.47;;;8.70;;
9904;SDS011;4991;43.566;27.820;2023-05-10T04:35:57;10.47;;;8.13;;
9904;SDS011;4991;43.566;27.820;2023-05-10T04:38:23;12.10;;;8.10;;
9904;SDS011;4991;43.566;27.820;2023-05-10T04:40:49;12.27;;;9.13;;
9904;SDS011;4991;43.566;27.820;2023-05-10T04:43:14;10.90;;;8.30;;
9904;SDS011;4991;43.566;27.820;2023-05-10T04:45:40;12.13;;;8.87;;
9904;SDS011;4991;43.566;27.820;2023-05-10T04:48:05;12.27;;;9.27;;
9904;SDS011;4991;43.566;27.820;2023-05-10T04:50:31;13.33;;;8.50;;
9904;SDS011;4991;43.566;27.820;2023-05-10T04:52:57;9.93;;;7.30;;
9904;SDS011;4991;43.566;27.820;2023-05-10T04:55:22;14.13;;;8.83;;
9904;SDS011;4991;43.566;27.820;2023-05-10T04:57:48;11.77;;;8.60;;
9904;SDS011;4991;43.566;27.820;2023-05-10T05:00:14;9.30;;;8.07;;
9904;SDS011;4991;43.566;27.820;2023-05-10T05:02:43;12.10;;;8.80;;
9904;SDS011;4991;43.566;27.820;2023-05-10T05:05:12;12.57;;;8.00;;
9904;SDS011;4991;43.566;27.820;2023-05-10T05:07:37;11.03;;;8.77;;
9904;SDS011;4991;43.566;27.820;2023-05-10T05:10:06;10.40;;;8.37;;
9904;SDS011;4991;43.566;27.820;2023-05-10T05:12:33;9.50;;;8.17;;
9904;SDS011;4991;43.566;27.820;2023-05-10T05:15:00;14.27;;;8.90;;
9904;SDS011;4991;43.566;27.820;2023-05-10T05:17:25;11.23;;;9.17;;
9904;SDS011;4991;43.566;27.820;2023-05-10T05:19:51;9.57;;;8.53;;
9904;SDS011;4991;43.566;27.820;2023-05-10T05:22:17;13.63;;;8.83;;
9904;SDS011;4991;43.566;27.820;2023-05-10T05:24:44;14.13;;;11.97;;
9904;SDS011;4991;43.566;27.820;2023-05-10T05:27:11;11.47;;;8.70;;
9904;SDS011;4991;43.566;27.820;2023-05-10T05:29:37;11.90;;;8.57;;
9904;SDS011;4991;43.566;27.820;2023-05-10T05:32:03;9.57;;;8.57;;
9904;SDS011;4991;43.566;27.820;2023-05-10T05:34:29;10.07;;;8.20;;
9904;SDS011;4991;43.566;27.820;2023-05-10T05:36:55;11.10;;;9.17;;
9904;SDS011;4991;43.566;27.820;2023-05-10T05:39:21;14.80;;;9.53;;
9904;SDS011;4991;43.566;27.820;2023-05-10T05:41:47;11.73;;;9.30;;
9904;SDS011;4991;43.566;27.820;2023-05-10T05:44:13;11.93;;;9.30;;
9904;SDS011;4991;43.566;27.820;2023-05-10T05:46:38;12.70;;;10.43;;
9904;SDS011;4991;43.566;27.820;2023-05-10T05:49:04;14.33;;;9.10;;
9904;SDS011;4991;43.566;27.820;2023-05-10T05:51:31;16.53;;;11.00;;
9904;SDS011;4991;43.566;27.820;2023-05-10T05:53:57;16.00;;;10.90;;
9904;SDS011;4991;43.566;27.820;2023-05-10T05:56:23;14.93;;;11.47;;
9904;SDS011;4991;43.566;27.820;2023-05-10T05:58:52;15.93;;;10.97;;
9904;SDS011;4991;43.566;27.820;2023-05-10T06:01:18;14.83;;;11.43;;
9904;SDS011;4991;43.566;27.820;2023-05-10T06:03:43;13.53;;;10.23;;
9904;SDS011;4991;43.566;27.820;2023-05-10T06:06:09;11.00;;;9.37;;
9904;SDS011;4991;43.566;27.820;2023-05-10T06:08:35;16.20;;;10.57;;
9904;SDS011;4991;43.566;27.820;2023-05-10T06:11:01;15.60;;;10.77;;
9904;SDS011;4991;43.566;27.820;2023-05-10T06:13:26;19.37;;;9.97;;
9904;SDS011;4991;43.566;27.820;2023-05-10T06:15:57;12.63;;;10.30;;
9904;SDS011;4991;43.566;27.820;2023-05-10T06:18:24;16.23;;;9.00;;
9904;SDS011;4991;43.566;27.820;2023-05-10T06:20:50;8.40;;;6.53;;
9904;SDS011;4991;43.566;27.820;2023-05-10T06:23:16;6.60;;;5.33;;
9904;SDS011;4991;43.566;27.820;2023-05-10T06:25:42;5.73;;;4.77;;
9904;SDS011;4991;43.566;27.820;2023-05-10T06:28:08;4.30;;;3.90;;
9904;SDS011;4991;43.566;27.820;2023-05-10T06:30:35;6.27;;;4.07;;
9904;SDS011;4991;43.566;27.820;2023-05-10T06:33:01;5.63;;;3.73;;
9904;SDS011;4991;43.566;27.820;2023-05-10T06:35:27;5.27;;;3.90;;
9904;SDS011;4991;43.566;27.820;2023-05-10T06:37:54;7.13;;;3.90;;
9904;SDS011;4991;43.566;27.820;2023-05-10T06:40:19;6.70;;;4.07;;
9904;SDS011;4991;43.566;27.820;2023-05-10T06:42:47;4.67;;;3.43;;
9904;SDS011;4991;43.566;27.820;2023-05-10T06:45:13;4.03;;;3.30;;
9904;SDS011;4991;43.566;27.820;2023-05-10T06:47:40;5.67;;;3.20;;
9904;SDS011;4991;43.566;27.820;2023-05-10T06:50:07;4.67;;;3.80;;
9904;SDS011;4991;43.566;27.820;2023-05-10T06:52:33;4.37;;;3.83;;
9904;SDS011;4991;43.566;27.820;2023-05-10T06:54:59;3.53;;;3.17;;
9904;SDS011;4991;43.566;27.820;2023-05-10T06:57:25;3.67;;;3.03;;
9904;SDS011;4991;43.566;27.820;2023-05-10T06:59:51;6.53;;;3.57;;
9904;SDS011;4991;43.566;27.820;2023-05-10T07:02:17;7.07;;;3.20;;
9904;SDS011;4991;43.566;27.820;2023-05-10T07:04:43;7.97;;;3.70;;
9904;SDS011;4991;43.566;27.820;2023-05-10T07:07:09;3.60;;;3.30;;
9904;SDS011;4991;43.566;27.820;2023-05-10T07:09:34;4.90;;;3.07;;
9904;SDS011;4991;43.566;27.820;2023-05-10T07:12:00;4.47;;;3.67;;
9904;SDS011;4991;43.566;27.820;2023-05-10T07:14:27;8.57;;;3.60;;
9904;SDS011;4991;43.566;27.820;2023-05-10T07:16:53;7.20;;;3.97;;
9904;SDS011;4991;43.566;27.820;2023-05-10T07:19:18;10.33;;;3.97;;
9904;SDS011;4991;43.566;27.820;2023-05-10T07:21:44;8.63;;;3.80;;
9904;SDS011;4991;43.566;27.820;2023-05-10T07:24:10;6.57;;;3.17;;
9904;SDS011;4991;43.566;27.820;2023-05-10T07:26:36;3.47;;;3.10;;
9904;SDS011;4991;43.566;27.820;2023-05-10T07:29:01;5.63;;;3.80;;
9904;SDS011;4991;43.566;27.820;2023-05-10T07:31:27;5.57;;;3.87;;
9904;SDS011;4991;43.566;27.820;2023-05-10T07:33:53;8.60;;;3.73;;
9904;SDS011;4991;43.566;27.820;2023-05-10T07:36:18;8.63;;;3.67;;
9904;SDS011;4991;43.566;27.820;2023-05-10T07:38:44;4.37;;;3.67;;
9904;SDS011;4991;43.566;27.820;2023-05-10T07:41:11;4.47;;;3.70;;
9904;SDS011;4991;43.566;27.820;2023-05-10T07:43:37;3.73;;;3.40;;
9904;SDS011;4991;43.566;27.820;2023-05-10T07:46:03;4.47;;;3.40;;
9904;SDS011;4991;43.566;27.820;2023-05-10T07:48:29;5.03;;;3.47;;
9904;SDS011;4991;43.566;27.820;2023-05-10T07:50:54;4.63;;;3.47;;
9904;SDS011;4991;43.566;27.820;2023-05-10T07:53:20;5.57;;;4.00;;
9904;SDS011;4991;43.566;27.820;2023-05-10T07:55:58;6.50;;;3.83;;
9904;SDS011;4991;43.566;27.820;2023-05-10T07:58:24;4.63;;;2.90;;
9904;SDS011;4991;43.566;27.820;2023-05-10T08:00:50;5.57;;;3.10;;
9904;SDS011;4991;43.566;27.820;2023-05-10T08:03:15;4.77;;;2.80;;
9904;SDS011;4991;43.566;27.820;2023-05-10T08:05:41;5.53;;;3.23;;
9904;SDS011;4991;43.566;27.820;2023-05-10T08:08:09;3.77;;;2.73;;
9904;SDS011;4991;43.566;27.820;2023-05-10T08:10:35;3.30;;;3.00;;
9904;SDS011;4991;43.566;27.820;2023-05-10T08:13:01;6.30;;;3.13;;
9904;SDS011;4991;43.566;27.820;2023-05-10T08:15:26;4.53;;;3.00;;
9904;SDS011;4991;43.566;27.820;2023-05-10T08:17:52;4.40;;;2.47;;
9904;SDS011;4991;43.566;27.820;2023-05-10T08:20:18;6.00;;;3.17;;
9904;SDS011;4991;43.566;27.820;2023-05-10T08:22:44;4.97;;;3.00;;
9904;SDS011;4991;43.566;27.820;2023-05-10T08:25:11;5.97;;;3.07;;
9904;SDS011;4991;43.566;27.820;2023-05-10T08:27:36;5.50;;;2.83;;
9904;SDS011;4991;43.566;27.820;2023-05-10T08:30:02;7.07;;;3.97;;
9904;SDS011;4991;43.566;27.820;2023-05-10T08:32:28;4.27;;;3.10;;
9904;SDS011;4991;43.566;27.820;2023-05-10T08:34:53;7.90;;;3.30;;
9904;SDS011;4991;43.566;27.820;2023-05-10T08:37:20;4.90;;;3.20;;
9904;SDS011;4991;43.566;27.820;2023-05-10T08:39:46;6.93;;;3.53;;
9904;SDS011;4991;43.566;27.820;2023-05-10T08:42:13;6.03;;;2.77;;
9904;SDS011;4991;43.566;27.820;2023-05-10T08:44:44;6.17;;;3.13;;
9904;SDS011;4991;43.566;27.820;2023-05-10T08:47:13;3.23;;;2.73;;
9904;SDS011;4991;43.566;27.820;2023-05-10T08:49:41;4.17;;;3.27;;
9904;SDS011;4991;43.566;27.820;2023-05-10T08:52:09;5.03;;;3.10;;
9904;SDS011;4991;43.566;27.820;2023-05-10T08:54:38;3.37;;;2.80;;
9904;SDS011;4991;43.566;27.820;2023-05-10T08:57:04;3.63;;;2.60;;
9904;SDS011;4991;43.566;27.820;2023-05-10T08:59:30;6.40;;;3.60;;
9904;SDS011;4991;43.566;27.820;2023-05-10T09:01:57;3.43;;;2.90;;
9904;SDS011;4991;43.566;27.820;2023-05-10T09:04:24;3.07;;;2.60;;
9904;SDS011;4991;43.566;27.820;2023-05-10T09:06:49;13.17;;;3.07;;
9904;SDS011;4991;43.566;27.820;2023-05-10T09:09:16;3.47;;;2.70;;
9904;SDS011;4991;43.566;27.820;2023-05-10T09:11:43;3.37;;;3.07;;
9904;SDS011;4991;43.566;27.820;2023-05-10T09:14:09;2.53;;;2.23;;
9904;SDS011;4991;43.566;27.820;2023-05-10T09:16:37;2.87;;;2.30;;
9904;SDS011;4991;43.566;27.820;2023-05-10T09:19:03;9.83;;;3.00;;
9904;SDS011;4991;43.566;27.820;2023-05-10T09:21:29;3.43;;;2.80;;
9904;SDS011;4991;43.566;27.820;2023-05-10T09:23:56;3.73;;;2.60;;
9904;SDS011;4991;43.566;27.820;2023-05-10T09:26:22;4.90;;;2.70;;
9904;SDS011;4991;43.566;27.820;2023-05-10T09:28:56;2.83;;;2.33;;
9904;SDS011;4991;43.566;27.820;2023-05-10T09:31:22;10.13;;;5.27;;
9904;SDS011;4991;43.566;27.820;2023-05-10T09:33:50;4.87;;;3.00;;
9904;SDS011;4991;43.566;27.820;2023-05-10T09:36:16;4.23;;;2.50;;
9904;SDS011;4991;43.566;27.820;2023-05-10T09:38:49;2.57;;;2.10;;
9904;SDS011;4991;43.566;27.820;2023-05-10T09:41:19;2.63;;;2.40;;
9904;SDS011;4991;43.566;27.820;2023-05-10T09:43:49;2.47;;;2.23;;
9904;SDS011;4991;43.566;27.820;2023-05-10T09:46:15;2.80;;;2.30;;
9904;SDS011;4991;43.566;27.820;2023-05-10T09:48:45;3.03;;;2.50;;
9904;SDS011;4991;43.566;27.820;2023-05-10T09:51:21;2.97;;;2.53;;
9904;SDS011;4991;43.566;27.820;2023-05-10T09:53:48;6.17;;;3.13;;
9904;SDS011;4991;43.566;27.820;2023-05-10T09:56:34;5.93;;;3.77;;
9904;SDS011;4991;43.566;27.820;2023-05-10T09:59:04;2.60;;;2.40;;
9904;SDS011;4991;43.566;27.820;2023-05-10T10:01:30;5.63;;;2.70;;
9904;SDS011;4991;43.566;27.820;2023-05-10T10:03:56;2.80;;;2.42;;
9904;SDS011;4991;43.566;27.820;2023-05-10T10:06:24;3.50;;;2.53;;
9904;SDS011;4991;43.566;27.820;2023-05-10T10:08:51;4.15;;;2.58;;
9904;SDS011;4991;43.566;27.820;2023-05-10T10:11:19;2.85;;;2.20;;
9904;SDS011;4991;43.566;27.820;2023-05-10T10:13:45;3.28;;;2.45;;
9904;SDS011;4991;43.566;27.820;2023-05-10T10:16:12;3.38;;;2.20;;
9904;SDS011;4991;43.566;27.820;2023-05-10T10:18:38;2.50;;;2.30;;
9904;SDS011;4991;43.566;27.820;2023-05-10T10:21:05;3.20;;;2.70;;
9904;SDS011;4991;43.566;27.820;2023-05-10T10:23:34;3.80;;;2.88;;
9904;SDS011;4991;43.566;27.820;2023-05-10T10:26:01;2.70;;;2.15;;
9904;SDS011;4991;43.566;27.820;2023-05-10T10:31:12;2.97;;;2.70;;
9904;SDS011;4991;43.566;27.820;2023-05-10T10:36:20;4.78;;;3.25;;
9904;SDS011;4991;43.566;27.820;2023-05-10T10:41:33;4.20;;;2.42;;
9904;SDS011;4991;43.566;27.820;2023-05-10T10:49:37;3.30;;;2.83;;
9904;SDS011;4991;43.566;27.820;2023-05-10T10:52:13;2.77;;;2.50;;
9904;SDS011;4991;43.566;27.820;2023-05-10T10:57:29;4.30;;;2.53;;
9904;SDS011;4991;43.566;27.820;2023-05-10T11:02:47;5.37;;;3.47;;
9904;SDS011;4991;43.566;27.820;2023-05-10T11:08:30;3.47;;;2.20;;
9904;SDS011;4991;43.566;27.820;2023-05-10T11:10:38;4.33;;;2.30;;
9904;SDS011;4991;43.566;27.820;2023-05-10T11:13:06;3.33;;;2.33;;
9904;SDS011;4991;43.566;27.820;2023-05-10T11:15:34;3.57;;;2.50;;
9904;SDS011;4991;43.566;27.820;2023-05-10T11:20:51;2.80;;;2.60;;
9904;SDS011;4991;43.566;27.820;2023-05-10T11:26:08;4.70;;;2.37;;
9904;SDS011;4991;43.566;27.820;2023-05-10T11:28:40;5.07;;;2.42;;
9904;SDS011;4991;43.566;27.820;2023-05-10T11:31:07;5.43;;;2.45;;
9904;SDS011;4991;43.566;27.820;2023-05-10T11:33:43;4.03;;;2.50;;
9904;SDS011;4991;43.566;27.820;2023-05-10T11:36:20;2.97;;;2.70;;
9904;SDS011;4991;43.566;27.820;2023-05-10T11:38:48;6.28;;;2.85;;
9904;SDS011;4991;43.566;27.820;2023-05-10T11:41:15;4.00;;;2.67;;
9904;SDS011;4991;43.566;27.820;2023-05-10T11:43:42;4.53;;;2.55;;
9904;SDS011;4991;43.566;27.820;2023-05-10T11:46:11;4.20;;;2.30;;
9904;SDS011;4991;43.566;27.820;2023-05-10T11:48:40;2.87;;;2.43;;
9904;SDS011;4991;43.566;27.820;2023-05-10T11:51:10;4.63;;;2.70;;
9904;SDS011;4991;43.566;27.820;2023-05-10T11:53:36;3.60;;;2.50;;
9904;SDS011;4991;43.566;27.820;2023-05-10T11:56:06;3.77;;;3.00;;
9904;SDS011;4991;43.566;27.820;2023-05-10T11:58:33;4.30;;;2.87;;
9904;SDS011;4991;43.566;27.820;2023-05-10T12:00:59;2.63;;;2.43;;
9904;SDS011;4991;43.566;27.820;2023-05-10T12:03:26;3.25;;;2.63;;
9904;SDS011;4991;43.566;27.820;2023-05-10T12:05:52;6.78;;;2.63;;
9904;SDS011;4991;43.566;27.820;2023-05-10T12:08:22;2.95;;;2.13;;
9904;SDS011;4991;43.566;27.820;2023-05-10T12:10:53;4.63;;;2.85;;
9904;SDS011;4991;43.566;27.820;2023-05-10T12:13:28;3.10;;;2.40;;
9904;SDS011;4991;43.566;27.820;2023-05-10T12:15:54;2.92;;;2.17;;
9904;SDS011;4991;43.566;27.820;2023-05-10T12:18:23;2.75;;;2.45;;
9904;SDS011;4991;43.566;27.820;2023-05-10T12:20:53;6.40;;;2.63;;
9904;SDS011;4991;43.566;27.820;2023-05-10T12:23:19;5.88;;;3.10;;
9904;SDS011;4991;43.566;27.820;2023-05-10T12:25:45;2.97;;;2.25;;
9904;SDS011;4991;43.566;27.820;2023-05-10T12:28:11;3.65;;;3.35;;
9904;SDS011;4991;43.566;27.820;2023-05-10T12:30:37;2.92;;;2.33;;
9904;SDS011;4991;43.566;27.820;2023-05-10T12:33:08;3.97;;;2.60;;
9904;SDS011;4991;43.566;27.820;2023-05-10T12:35:46;3.50;;;2.90;;
9904;SDS011;4991;43.566;27.820;2023-05-10T12:38:26;2.83;;;2.43;;
9904;SDS011;4991;43.566;27.820;2023-05-10T12:40:55;14.60;;;4.28;;
9904;SDS011;4991;43.566;27.820;2023-05-10T12:43:47;4.55;;;2.53;;
9904;SDS011;4991;43.566;27.820;2023-05-10T12:46:14;2.58;;;2.35;;
9904;SDS011;4991;43.566;27.820;2023-05-10T12:48:42;5.82;;;2.72;;
9904;SDS011;4991;43.566;27.820;2023-05-10T12:51:09;5.60;;;3.35;;
9904;SDS011;4991;43.566;27.820;2023-05-10T12:53:37;3.60;;;2.40;;
9904;SDS011;4991;43.566;27.820;2023-05-10T12:56:03;2.85;;;2.40;;
9904;SDS011;4991;43.566;27.820;2023-05-10T12:58:29;2.63;;;1.98;;
9904;SDS011;4991;43.566;27.820;2023-05-10T13:00:55;5.05;;;2.78;;
9904;SDS011;4991;43.566;27.820;2023-05-10T13:03:21;5.68;;;2.20;;
9904;SDS011;4991;43.566;27.820;2023-05-10T13:05:47;2.88;;;2.22;;
9904;SDS011;4991;43.566;27.820;2023-05-10T13:08:13;3.17;;;2.58;;
9904;SDS011;4991;43.566;27.820;2023-05-10T13:10:39;5.95;;;3.60;;
9904;SDS011;4991;43.566;27.820;2023-05-10T13:13:05;3.08;;;2.30;;
9904;SDS011;4991;43.566;27.820;2023-05-10T13:15:32;2.97;;;2.67;;
9904;SDS011;4991;43.566;27.820;2023-05-10T13:17:58;2.70;;;2.50;;
9904;SDS011;4991;43.566;27.820;2023-05-10T13:20:24;2.70;;;2.50;;
9904;SDS011;4991;43.566;27.820;2023-05-10T13:22:50;4.07;;;2.38;;
9904;SDS011;4991;43.566;27.820;2023-05-10T13:25:16;2.85;;;2.55;;
9904;SDS011;4991;43.566;27.820;2023-05-10T13:27:41;2.47;;;2.10;;
9904;SDS011;4991;43.566;27.820;2023-05-10T13:30:08;3.25;;;2.35;;
9904;SDS011;4991;43.566;27.820;2023-05-10T13:32:34;2.85;;;2.50;;
9904;SDS011;4991;43.566;27.820;2023-05-10T13:35:00;2.65;;;2.40;;
9904;SDS011;4991;43.566;27.820;2023-05-10T13:37:25;2.80;;;2.50;;
9904;SDS011;4991;43.566;27.820;2023-05-10T13:39:51;6.53;;;4.32;;
9904;SDS011;4991;43.566;27.820;2023-05-10T13:42:17;4.55;;;3.10;;
9904;SDS011;4991;43.566;27.820;2023-05-10T13:44:43;3.20;;;2.63;;
9904;SDS011;4991;43.566;27.820;2023-05-10T13:47:09;3.60;;;2.50;;
9904;SDS011;4991;43.566;27.820;2023-05-10T13:49:35;2.78;;;2.40;;
9904;SDS011;4991;43.566;27.820;2023-05-10T13:52:01;2.50;;;2.30;;
9904;SDS011;4991;43.566;27.820;2023-05-10T13:54:32;3.28;;;2.75;;
9904;SDS011;4991;43.566;27.820;2023-05-10T13:56:59;4.43;;;2.55;;
9904;SDS011;4991;43.566;27.820;2023-05-10T13:59:25;3.25;;;2.30;;
9904;SDS011;4991;43.566;27.820;2023-05-10T14:01:50;2.92;;;2.45;;
9904;SDS011;4991;43.566;27.820;2023-05-10T14:04:16;2.55;;;2.30;;
9904;SDS011;4991;43.566;27.820;2023-05-10T14:06:43;2.70;;;2.50;;
9904;SDS011;4991;43.566;27.820;2023-05-10T14:09:09;3.53;;;2.40;;
9904;SDS011;4991;43.566;27.820;2023-05-10T14:11:35;3.03;;;2.72;;
9904;SDS011;4991;43.566;27.820;2023-05-10T14:14:00;3.17;;;2.47;;
9904;SDS011;4991;43.566;27.820;2023-05-10T14:16:26;3.17;;;2.67;;
9904;SDS011;4991;43.566;27.820;2023-05-10T14:18:53;3.80;;;2.45;;
9904;SDS011;4991;43.566;27.820;2023-05-10T14:21:19;4.30;;;2.65;;
9904;SDS011;4991;43.566;27.820;2023-05-10T14:23:44;3.90;;;2.20;;
9904;SDS011;4991;43.566;27.820;2023-05-10T14:26:10;4.68;;;2.60;;
9904;SDS011;4991;43.566;27.820;2023-05-10T14:28:35;3.72;;;2.40;;
9904;SDS011;4991;43.566;27.820;2023-05-10T14:31:01;4.53;;;2.42;;
9904;SDS011;4991;43.566;27.820;2023-05-10T14:33:27;3.03;;;2.33;;
9904;SDS011;4991;43.566;27.820;2023-05-10T14:35:53;3.08;;;2.25;;
9904;SDS011;4991;43.566;27.820;2023-05-10T14:38:22;4.32;;;2.70;;
9904;SDS011;4991;43.566;27.820;2023-05-10T14:40:48;6.80;;;3.92;;
9904;SDS011;4991;43.566;27.820;2023-05-10T14:43:14;4.18;;;3.15;;
9904;SDS011;4991;43.566;27.820;2023-05-10T14:45:40;2.95;;;2.40;;
9904;SDS011;4991;43.566;27.820;2023-05-10T14:48:06;5.90;;;2.83;;
9904;SDS011;4991;43.566;27.820;2023-05-10T14:50:33;3.25;;;2.95;;
9904;SDS011;4991;43.566;27.820;2023-05-10T14:52:59;3.00;;;2.58;;
9904;SDS011;4991;43.566;27.820;2023-05-10T14:55:24;3.55;;;2.90;;
9904;SDS011;4991;43.566;27.820;2023-05-10T14:57:50;4.13;;;2.78;;
9904;SDS011;4991;43.566;27.820;2023-05-10T15:00:15;6.22;;;3.10;;
9904;SDS011;4991;43.566;27.820;2023-05-10T15:02:42;4.43;;;3.00;;
9904;SDS011;4991;43.566;27.820;2023-05-10T15:05:07;3.25;;;2.95;;
9904;SDS011;4991;43.566;27.820;2023-05-10T15:07:33;3.35;;;2.60;;
9904;SDS011;4991;43.566;27.820;2023-05-10T15:09:59;4.38;;;2.22;;
9904;SDS011;4991;43.566;27.820;2023-05-10T15:12:25;3.03;;;2.63;;
9904;SDS011;4991;43.566;27.820;2023-05-10T15:14:51;2.67;;;2.40;;
9904;SDS011;4991;43.566;27.820;2023-05-10T15:17:16;2.95;;;2.65;;
9904;SDS011;4991;43.566;27.820;2023-05-10T15:19:42;6.03;;;2.67;;
9904;SDS011;4991;43.566;27.820;2023-05-10T15:22:09;3.03;;;2.70;;
9904;SDS011;4991;43.566;27.820;2023-05-10T15:24:35;3.27;;;2.60;;
9904;SDS011;4991;43.566;27.820;2023-05-10T15:27:01;3.08;;;2.40;;
9904;SDS011;4991;43.566;27.820;2023-05-10T15:29:26;4.83;;;3.90;;
9904;SDS011;4991;43.566;27.820;2023-05-10T15:31:52;3.30;;;3.00;;
9904;SDS011;4991;43.566;27.820;2023-05-10T15:34:18;4.53;;;3.70;;
9904;SDS011;4991;43.566;27.820;2023-05-10T15:36:44;5.37;;;2.87;;
9904;SDS011;4991;43.566;27.820;2023-05-10T15:39:11;4.03;;;3.30;;
9904;SDS011;4991;43.566;27.820;2023-05-10T15:41:36;4.43;;;3.03;;
9904;SDS011;4991;43.566;27.820;2023-05-10T15:44:02;3.20;;;2.90;;
9904;SDS011;4991;43.566;27.820;2023-05-10T15:46:29;3.70;;;2.30;;